sensor_id;sensor_type;location;lat;lon;timestamp;pressure;altitude;pressure_sealevel;temperature;humidity
32251;BME280;41295;48.518;9.206;2023-03-03T00:00:16;97357.47;;;4.38;63.70
32251;BME280;41295;48.518;9.206;2023-03-03T00:02:18;97352.31;;;4.37;63.73
32251;BME280;41295;48.518;9.206;2023-03-03T00:04:21;97362.66;;;4.37;63.94
32251;BME280;41295;48.518;9.206;2023-03-03T00:06:25;97354.91;;;4.37;63.75
32251;BME280;41295;48.518;9.206;2023-03-03T00:08:30;97354.94;;;4.33;63.83
32251;BME280;41295;48.518;9.206;2023-03-03T00:10:33;97363.53;;;4.32;63.96
32251;BME280;41295;48.518;9.206;2023-03-03T00:12:45;97360.97;;;4.32;63.79
32251;BME280;41295;48.518;9.206;2023-03-03T00:14:49;97356.66;;;4.33;64.32
32251;BME280;41295;48.518;9.206;2023-03-03T00:16:52;97366.13;;;4.32;64.15
32251;BME280;41295;48.518;9.206;2023-03-03T00:18:55;97365.28;;;4.32;64.52
32251;BME280;41295;48.518;9.206;2023-03-03T00:20:59;97360.16;;;4.30;64.30
32251;BME280;41295;48.518;9.206;2023-03-03T00:23:13;97370.41;;;4.37;63.93
32251;BME280;41295;48.518;9.206;2023-03-03T00:25:27;97358.41;;;4.31;64.14
32251;BME280;41295;48.518;9.206;2023-03-03T00:27:33;97364.44;;;4.31;64.05
32251;BME280;41295;48.518;9.206;2023-03-03T00:29:40;97364.41;;;4.33;64.64
32251;BME280;41295;48.518;9.206;2023-03-03T00:31:48;97360.09;;;4.33;64.23
32251;BME280;41295;48.518;9.206;2023-03-03T00:33:53;97363.41;;;4.48;64.01
32251;BME280;41295;48.518;9.206;2023-03-03T00:35:56;97363.44;;;4.42;64.27
32251;BME280;41295;48.518;9.206;2023-03-03T00:38:09;97363.59;;;4.28;64.43
32251;BME280;41295;48.518;9.206;2023-03-03T00:40:19;97367.09;;;4.22;64.69
32251;BME280;41295;48.518;9.206;2023-03-03T00:42:22;97361.09;;;4.23;64.43
32251;BME280;41295;48.518;9.206;2023-03-03T00:44:41;97359.34;;;4.24;64.41
32251;BME280;41295;48.518;9.206;2023-03-03T00:46:44;97362.78;;;4.24;64.46
32251;BME280;41295;48.518;9.206;2023-03-03T00:48:49;97363.59;;;4.28;64.10
32251;BME280;41295;48.518;9.206;2023-03-03T00:50:53;97366.22;;;4.26;64.13
32251;BME280;41295;48.518;9.206;2023-03-03T00:53:10;97362.75;;;4.27;64.65
32251;BME280;41295;48.518;9.206;2023-03-03T00:55:12;97360.19;;;4.26;64.40
32251;BME280;41295;48.518;9.206;2023-03-03T00:57:15;97361.03;;;4.26;64.61
32251;BME280;41295;48.518;9.206;2023-03-03T00:59:18;97365.38;;;4.23;64.55
32251;BME280;41295;48.518;9.206;2023-03-03T01:01:20;97368.81;;;4.25;64.73
32251;BME280;41295;48.518;9.206;2023-03-03T01:03:26;97367.09;;;4.24;64.45
32251;BME280;41295;48.518;9.206;2023-03-03T01:05:30;97365.31;;;4.27;64.43
32251;BME280;41295;48.518;9.206;2023-03-03T01:07:32;97357.66;;;4.21;64.54
32251;BME280;41295;48.518;9.206;2023-03-03T01:09:35;97354.22;;;4.20;64.41
32251;BME280;41295;48.518;9.206;2023-03-03T01:11:37;97361.09;;;4.20;64.46
32251;BME280;41295;48.518;9.206;2023-03-03T01:13:42;97359.41;;;4.19;64.75
32251;BME280;41295;48.518;9.206;2023-03-03T01:15:45;97355.94;;;4.20;64.42
32251;BME280;41295;48.518;9.206;2023-03-03T01:17:48;97356.78;;;4.25;64.45
32251;BME280;41295;48.518;9.206;2023-03-03T01:19:51;97356.84;;;4.17;64.98
32251;BME280;41295;48.518;9.206;2023-03-03T01:21:54;97357.72;;;4.15;64.64
32251;BME280;41295;48.518;9.206;2023-03-03T01:23:57;97352.59;;;4.12;65.02
32251;BME280;41295;48.518;9.206;2023-03-03T01:26:00;97353.44;;;4.14;65.17
32251;BME280;41295;48.518;9.206;2023-03-03T01:28:03;97350.00;;;4.13;64.82
32251;BME280;41295;48.518;9.206;2023-03-03T01:30:07;97353.44;;;4.14;64.78
32251;BME280;41295;48.518;9.206;2023-03-03T01:32:10;97346.56;;;4.14;64.53
32251;BME280;41295;48.518;9.206;2023-03-03T01:34:13;97351.59;;;4.25;63.85
32251;BME280;41295;48.518;9.206;2023-03-03T01:36:22;97355.16;;;4.13;64.21
32251;BME280;41295;48.518;9.206;2023-03-03T01:38:26;97352.59;;;4.10;64.51
32251;BME280;41295;48.518;9.206;2023-03-03T01:40:29;97352.66;;;4.05;64.54
32251;BME280;41295;48.518;9.206;2023-03-03T01:42:32;97349.22;;;4.05;65.01
32251;BME280;41295;48.518;9.206;2023-03-03T01:44:35;97350.06;;;4.04;64.64
32251;BME280;41295;48.518;9.206;2023-03-03T01:46:43;97353.56;;;4.00;64.84
32251;BME280;41295;48.518;9.206;2023-03-03T01:48:47;97350.97;;;4.01;64.94
32251;BME280;41295;48.518;9.206;2023-03-03T01:50:53;97349.25;;;4.02;64.50
32251;BME280;41295;48.518;9.206;2023-03-03T01:53:02;97349.28;;;4.00;64.78
32251;BME280;41295;48.518;9.206;2023-03-03T01:55:11;97349.25;;;4.02;64.76
32251;BME280;41295;48.518;9.206;2023-03-03T01:57:17;97346.72;;;3.95;64.75
32251;BME280;41295;48.518;9.206;2023-03-03T01:59:24;97344.19;;;3.91;64.80
32251;BME280;41295;48.518;9.206;2023-03-03T02:01:30;97347.63;;;3.93;64.80
32251;BME280;41295;48.518;9.206;2023-03-03T02:03:33;97345.91;;;3.90;64.94
32251;BME280;41295;48.518;9.206;2023-03-03T02:05:37;97343.34;;;3.89;64.86
32251;BME280;41295;48.518;9.206;2023-03-03T02:07:41;97345.09;;;3.87;64.86
32251;BME280;41295;48.518;9.206;2023-03-03T02:09:50;97342.53;;;3.85;64.59
32251;BME280;41295;48.518;9.206;2023-03-03T02:11:58;97339.91;;;3.91;64.65
32251;BME280;41295;48.518;9.206;2023-03-03T02:14:03;97338.13;;;3.93;64.02
32251;BME280;41295;48.518;9.206;2023-03-03T02:16:06;97334.88;;;3.76;64.17
32251;BME280;41295;48.518;9.206;2023-03-03T02:18:11;97333.25;;;3.65;64.55
32251;BME280;41295;48.518;9.206;2023-03-03T02:20:20;97335.00;;;3.61;64.70
32251;BME280;41295;48.518;9.206;2023-03-03T02:22:34;97336.72;;;3.59;65.14
32251;BME280;41295;48.518;9.206;2023-03-03T02:24:43;97334.16;;;3.58;65.13
32251;BME280;41295;48.518;9.206;2023-03-03T02:26:50;97334.19;;;3.56;64.94
32251;BME280;41295;48.518;9.206;2023-03-03T02:28:52;97331.63;;;3.55;65.00
32251;BME280;41295;48.518;9.206;2023-03-03T02:30:56;97330.75;;;3.59;65.57
32251;BME280;41295;48.518;9.206;2023-03-03T02:32:59;97329.94;;;3.49;65.13
32251;BME280;41295;48.518;9.206;2023-03-03T02:35:27;97325.66;;;3.45;65.77
32251;BME280;41295;48.518;9.206;2023-03-03T02:37:30;97320.50;;;3.48;65.58
32251;BME280;41295;48.518;9.206;2023-03-03T02:39:33;97323.06;;;3.49;65.67
32251;BME280;41295;48.518;9.206;2023-03-03T02:41:38;97323.06;;;3.51;65.52
32251;BME280;41295;48.518;9.206;2023-03-03T02:43:47;97319.59;;;3.54;65.76
32251;BME280;41295;48.518;9.206;2023-03-03T02:45:53;97316.16;;;3.55;65.98
32251;BME280;41295;48.518;9.206;2023-03-03T02:47:56;97315.19;;;3.65;65.55
32251;BME280;41295;48.518;9.206;2023-03-03T02:49:58;97317.84;;;3.59;65.52
32251;BME280;41295;48.518;9.206;2023-03-03T02:52:03;97318.69;;;3.58;65.48
32251;BME280;41295;48.518;9.206;2023-03-03T02:54:07;97322.88;;;3.70;65.11
32251;BME280;41295;48.518;9.206;2023-03-03T02:56:10;97314.38;;;3.60;64.89
32251;BME280;41295;48.518;9.206;2023-03-03T02:58:12;97316.16;;;3.55;65.12
32251;BME280;41295;48.518;9.206;2023-03-03T03:00:16;97322.16;;;3.55;65.57
32251;BME280;41295;48.518;9.206;2023-03-03T03:02:19;97317.00;;;3.52;65.64
32251;BME280;41295;48.518;9.206;2023-03-03T03:04:24;97317.03;;;3.54;65.68
32251;BME280;41295;48.518;9.206;2023-03-03T03:06:27;97312.72;;;3.54;65.68
32251;BME280;41295;48.518;9.206;2023-03-03T03:08:29;97325.56;;;3.57;65.90
32251;BME280;41295;48.518;9.206;2023-03-03T03:10:32;97325.56;;;3.57;66.05
32251;BME280;41295;48.518;9.206;2023-03-03T03:12:35;97323.00;;;3.59;65.98
32251;BME280;41295;48.518;9.206;2023-03-03T03:14:37;97325.53;;;3.62;65.57
32251;BME280;41295;48.518;9.206;2023-03-03T03:16:41;97327.25;;;3.63;65.55
32251;BME280;41295;48.518;9.206;2023-03-03T03:18:44;97326.38;;;3.66;65.42
32251;BME280;41295;48.518;9.206;2023-03-03T03:20:47;97330.66;;;3.67;65.56
32251;BME280;41295;48.518;9.206;2023-03-03T03:22:49;97335.78;;;3.68;65.79
32251;BME280;41295;48.518;9.206;2023-03-03T03:24:52;97333.19;;;3.70;65.44
32251;BME280;41295;48.518;9.206;2023-03-03T03:26:54;97328.88;;;3.72;65.52
32251;BME280;41295;48.518;9.206;2023-03-03T03:28:57;97342.63;;;3.72;65.79
32251;BME280;41295;48.518;9.206;2023-03-03T03:31:00;97334.88;;;3.76;65.47
32251;BME280;41295;48.518;9.206;2023-03-03T03:33:05;97335.72;;;3.76;65.69
32251;BME280;41295;48.518;9.206;2023-03-03T03:35:08;97340.88;;;3.76;65.76
32251;BME280;41295;48.518;9.206;2023-03-03T03:37:11;97340.88;;;3.76;65.34
32251;BME280;41295;48.518;9.206;2023-03-03T03:39:14;97341.53;;;4.00;64.07
32251;BME280;41295;48.518;9.206;2023-03-03T03:41:17;97338.25;;;3.82;64.53
32251;BME280;41295;48.518;9.206;2023-03-03T03:43:19;97343.50;;;3.73;65.37
32251;BME280;41295;48.518;9.206;2023-03-03T03:45:22;97350.41;;;3.69;65.38
32251;BME280;41295;48.518;9.206;2023-03-03T03:47:25;97349.50;;;3.77;65.32
32251;BME280;41295;48.518;9.206;2023-03-03T03:49:29;97345.22;;;3.72;64.96
32251;BME280;41295;48.518;9.206;2023-03-03T03:51:31;97343.59;;;3.62;65.64
32251;BME280;41295;48.518;9.206;2023-03-03T03:53:35;97337.59;;;3.58;65.46
32251;BME280;41295;48.518;9.206;2023-03-03T03:55:38;97351.34;;;3.57;66.11
32251;BME280;41295;48.518;9.206;2023-03-03T03:57:41;97347.97;;;3.54;65.85
32251;BME280;41295;48.518;9.206;2023-03-03T03:59:44;97351.38;;;3.59;65.60
32251;BME280;41295;48.518;9.206;2023-03-03T04:01:47;97346.25;;;3.51;65.90
32251;BME280;41295;48.518;9.206;2023-03-03T04:03:50;97347.97;;;3.51;65.82
32251;BME280;41295;48.518;9.206;2023-03-03T04:05:54;97349.69;;;3.52;66.23
32251;BME280;41295;48.518;9.206;2023-03-03T04:07:57;97345.41;;;3.49;66.09
32251;BME280;41295;48.518;9.206;2023-03-03T04:09:59;97352.25;;;3.55;66.22
32251;BME280;41295;48.518;9.206;2023-03-03T04:12:02;97344.53;;;3.53;66.07
32251;BME280;41295;48.518;9.206;2023-03-03T04:14:05;97351.41;;;3.51;65.94
32251;BME280;41295;48.518;9.206;2023-03-03T04:16:08;97350.56;;;3.51;66.25
32251;BME280;41295;48.518;9.206;2023-03-03T04:18:11;97348.00;;;3.49;66.72
32251;BME280;41295;48.518;9.206;2023-03-03T04:20:14;97347.97;;;3.52;66.21
32251;BME280;41295;48.518;9.206;2023-03-03T04:22:18;97343.66;;;3.54;66.10
32251;BME280;41295;48.518;9.206;2023-03-03T04:24:21;97344.53;;;3.53;66.51
32251;BME280;41295;48.518;9.206;2023-03-03T04:26:24;97347.09;;;3.53;66.25
32251;BME280;41295;48.518;9.206;2023-03-03T04:28:27;97341.03;;;3.57;66.39
32251;BME280;41295;48.518;9.206;2023-03-03T04:30:29;97336.78;;;3.55;66.37
32251;BME280;41295;48.518;9.206;2023-03-03T04:32:32;97334.22;;;3.53;66.58
32251;BME280;41295;48.518;9.206;2023-03-03T04:34:35;97345.38;;;3.55;66.70
32251;BME280;41295;48.518;9.206;2023-03-03T04:36:38;97341.94;;;3.55;66.84
32251;BME280;41295;48.518;9.206;2023-03-03T04:38:42;97348.78;;;3.56;66.42
32251;BME280;41295;48.518;9.206;2023-03-03T04:40:44;97352.19;;;3.59;66.39
32251;BME280;41295;48.518;9.206;2023-03-03T04:42:47;97351.34;;;3.60;66.24
32251;BME280;41295;48.518;9.206;2023-03-03T04:44:50;97349.59;;;3.61;66.29
32251;BME280;41295;48.518;9.206;2023-03-03T04:46:52;97356.47;;;3.64;66.49
32251;BME280;41295;48.518;9.206;2023-03-03T04:48:55;97353.00;;;3.69;66.03
32251;BME280;41295;48.518;9.206;2023-03-03T04:50:58;97358.19;;;3.66;65.90
32251;BME280;41295;48.518;9.206;2023-03-03T04:53:00;97358.16;;;3.65;66.29
32251;BME280;41295;48.518;9.206;2023-03-03T04:55:05;97355.59;;;3.63;66.27
32251;BME280;41295;48.518;9.206;2023-03-03T04:57:10;97358.16;;;3.65;66.44
32251;BME280;41295;48.518;9.206;2023-03-03T04:59:13;97357.31;;;3.67;66.01
32251;BME280;41295;48.518;9.206;2023-03-03T05:01:16;97365.03;;;3.69;66.14
32251;BME280;41295;48.518;9.206;2023-03-03T05:03:20;97365.88;;;3.71;66.18
32251;BME280;41295;48.518;9.206;2023-03-03T05:05:23;97372.72;;;3.72;66.17
32251;BME280;41295;48.518;9.206;2023-03-03T05:07:25;97368.44;;;3.71;66.21
32251;BME280;41295;48.518;9.206;2023-03-03T05:09:28;97371.88;;;3.73;65.98
32251;BME280;41295;48.518;9.206;2023-03-03T05:11:32;97372.75;;;3.70;66.04
32251;BME280;41295;48.518;9.206;2023-03-03T05:13:35;97366.69;;;3.75;65.85
32251;BME280;41295;48.518;9.206;2023-03-03T05:15:37;97371.03;;;3.69;65.73
32251;BME280;41295;48.518;9.206;2023-03-03T05:17:43;97374.50;;;3.67;66.00
32251;BME280;41295;48.518;9.206;2023-03-03T05:19:46;97371.09;;;3.66;66.24
32251;BME280;41295;48.518;9.206;2023-03-03T05:21:48;97373.66;;;3.66;66.41
32251;BME280;41295;48.518;9.206;2023-03-03T05:23:55;97367.63;;;3.67;66.59
32251;BME280;41295;48.518;9.206;2023-03-03T05:25:57;97374.47;;;3.68;66.61
32251;BME280;41295;48.518;9.206;2023-03-03T05:28:01;97373.63;;;3.69;66.42
32251;BME280;41295;48.518;9.206;2023-03-03T05:30:06;97376.13;;;3.76;66.07
32251;BME280;41295;48.518;9.206;2023-03-03T05:32:09;97382.19;;;3.70;66.10
32251;BME280;41295;48.518;9.206;2023-03-03T05:34:11;97379.63;;;3.70;66.17
32251;BME280;41295;48.518;9.206;2023-03-03T05:36:14;97385.63;;;3.72;66.42
32251;BME280;41295;48.518;9.206;2023-03-03T05:38:17;97380.47;;;3.70;65.89
32251;BME280;41295;48.518;9.206;2023-03-03T05:40:19;97382.16;;;3.78;65.74
32251;BME280;41295;48.518;9.206;2023-03-03T05:42:22;97381.34;;;3.72;65.39
32251;BME280;41295;48.518;9.206;2023-03-03T05:44:26;97387.34;;;3.75;65.23
32251;BME280;41295;48.518;9.206;2023-03-03T05:46:29;97388.25;;;3.69;65.86
32251;BME280;41295;48.518;9.206;2023-03-03T05:48:32;97392.53;;;3.68;66.00
32251;BME280;41295;48.518;9.206;2023-03-03T05:50:35;97389.94;;;3.71;66.11
32251;BME280;41295;48.518;9.206;2023-03-03T05:52:38;97386.44;;;3.80;65.73
32251;BME280;41295;48.518;9.206;2023-03-03T05:54:40;97389.03;;;3.80;65.87
32251;BME280;41295;48.518;9.206;2023-03-03T05:56:43;97390.81;;;3.69;66.15
32251;BME280;41295;48.518;9.206;2023-03-03T05:58:45;97390.88;;;3.64;65.85
32251;BME280;41295;48.518;9.206;2023-03-03T06:00:50;97395.09;;;3.73;66.05
32251;BME280;41295;48.518;9.206;2023-03-03T06:02:52;97390.88;;;3.63;66.22
32251;BME280;41295;48.518;9.206;2023-03-03T06:04:55;97396.03;;;3.59;66.64
32251;BME280;41295;48.518;9.206;2023-03-03T06:06:57;97400.34;;;3.60;66.70
32251;BME280;41295;48.518;9.206;2023-03-03T06:09:00;97394.31;;;3.61;66.70
32251;BME280;41295;48.518;9.206;2023-03-03T06:11:03;97401.19;;;3.63;66.89
32251;BME280;41295;48.518;9.206;2023-03-03T06:13:05;97401.19;;;3.63;66.88
32251;BME280;41295;48.518;9.206;2023-03-03T06:15:09;97399.44;;;3.65;66.80
32251;BME280;41295;48.518;9.206;2023-03-03T06:17:13;97408.03;;;3.67;66.59
32251;BME280;41295;48.518;9.206;2023-03-03T06:19:16;97407.16;;;3.68;66.69
32251;BME280;41295;48.518;9.206;2023-03-03T06:21:18;97412.19;;;3.83;65.85
32251;BME280;41295;48.518;9.206;2023-03-03T06:23:21;97406.25;;;3.72;66.37
32251;BME280;41295;48.518;9.206;2023-03-03T06:25:24;97408.00;;;3.70;66.60
32251;BME280;41295;48.518;9.206;2023-03-03T06:27:26;97403.78;;;3.63;66.63
32251;BME280;41295;48.518;9.206;2023-03-03T06:29:29;97408.91;;;3.64;66.79
32251;BME280;41295;48.518;9.206;2023-03-03T06:31:32;97420.09;;;3.61;66.45
32251;BME280;41295;48.518;9.206;2023-03-03T06:33:36;97420.97;;;3.60;66.68
32251;BME280;41295;48.518;9.206;2023-03-03T06:35:38;97421.81;;;3.59;67.14
32251;BME280;41295;48.518;9.206;2023-03-03T06:37:41;97418.41;;;3.59;67.37
32251;BME280;41295;48.518;9.206;2023-03-03T06:39:44;97415.81;;;3.60;67.05
32251;BME280;41295;48.518;9.206;2023-03-03T06:41:46;97418.28;;;3.75;66.61
32251;BME280;41295;48.518;9.206;2023-03-03T06:43:49;97423.47;;;3.71;66.73
32251;BME280;41295;48.518;9.206;2023-03-03T06:45:51;97417.50;;;3.65;67.08
32251;BME280;41295;48.518;9.206;2023-03-03T06:47:54;97420.06;;;3.65;66.60
32251;BME280;41295;48.518;9.206;2023-03-03T06:49:58;97431.28;;;3.62;66.76
32251;BME280;41295;48.518;9.206;2023-03-03T06:52:08;97434.72;;;3.64;67.15
32251;BME280;41295;48.518;9.206;2023-03-03T06:54:14;97443.34;;;3.58;67.08
32251;BME280;41295;48.518;9.206;2023-03-03T06:56:18;97437.31;;;3.58;67.39
32251;BME280;41295;48.518;9.206;2023-03-03T06:58:21;97441.63;;;3.59;67.61
32251;BME280;41295;48.518;9.206;2023-03-03T07:00:25;97450.19;;;3.61;67.26
32251;BME280;41295;48.518;9.206;2023-03-03T07:02:31;97448.44;;;3.69;66.18
32251;BME280;41295;48.518;9.206;2023-03-03T07:04:34;97456.16;;;3.71;66.71
32251;BME280;41295;48.518;9.206;2023-03-03T07:06:38;97459.59;;;3.67;66.75
32251;BME280;41295;48.518;9.206;2023-03-03T07:08:40;97453.56;;;3.71;66.61
32251;BME280;41295;48.518;9.206;2023-03-03T07:10:44;97457.00;;;3.68;67.02
32251;BME280;41295;48.518;9.206;2023-03-03T07:12:47;97460.44;;;3.69;67.20
32251;BME280;41295;48.518;9.206;2023-03-03T07:14:51;97453.50;;;3.82;66.16
32251;BME280;41295;48.518;9.206;2023-03-03T07:16:59;97458.53;;;3.97;65.65
32251;BME280;41295;48.518;9.206;2023-03-03T07:19:02;97462.84;;;3.95;66.12
32251;BME280;41295;48.518;9.206;2023-03-03T07:21:15;97458.66;;;3.82;66.22
32251;BME280;41295;48.518;9.206;2023-03-03T07:23:22;97469.88;;;3.75;66.79
32251;BME280;41295;48.518;9.206;2023-03-03T07:25:29;97462.16;;;3.71;66.98
32251;BME280;41295;48.518;9.206;2023-03-03T07:27:32;97463.81;;;3.77;66.35
32251;BME280;41295;48.518;9.206;2023-03-03T07:29:35;97459.53;;;3.76;66.65
32251;BME280;41295;48.518;9.206;2023-03-03T07:31:45;97469.88;;;3.76;66.92
32251;BME280;41295;48.518;9.206;2023-03-03T07:33:52;97468.16;;;3.77;67.43
32251;BME280;41295;48.518;9.206;2023-03-03T07:35:57;97467.28;;;3.78;67.04
32251;BME280;41295;48.518;9.206;2023-03-03T07:38:00;97475.00;;;3.79;67.24
32251;BME280;41295;48.518;9.206;2023-03-03T07:40:26;97477.56;;;3.81;67.55
32251;BME280;41295;48.518;9.206;2023-03-03T07:42:37;97474.97;;;3.84;67.45
32251;BME280;41295;48.518;9.206;2023-03-03T07:44:40;97470.66;;;3.88;67.49
32251;BME280;41295;48.518;9.206;2023-03-03T07:46:44;97474.94;;;3.89;67.47
32251;BME280;41295;48.518;9.206;2023-03-03T07:48:49;97484.38;;;3.91;67.27
32251;BME280;41295;48.518;9.206;2023-03-03T07:50:52;97484.34;;;3.96;66.97
32251;BME280;41295;48.518;9.206;2023-03-03T07:52:56;97480.91;;;3.95;67.24
32251;BME280;41295;48.518;9.206;2023-03-03T07:55:01;97478.31;;;4.00;66.70
32251;BME280;41295;48.518;9.206;2023-03-03T07:57:25;97486.03;;;4.02;67.32
32251;BME280;41295;48.518;9.206;2023-03-03T07:59:34;97485.91;;;4.16;66.48
32251;BME280;41295;48.518;9.206;2023-03-03T08:01:39;97484.19;;;4.15;66.83
32251;BME280;41295;48.518;9.206;2023-03-03T08:03:43;97485.06;;;4.14;67.23
32251;BME280;41295;48.518;9.206;2023-03-03T11:26:25;97507.94;;;6.52;58.84
32251;BME280;41295;48.518;9.206;2023-03-03T11:28:44;97509.78;;;6.46;59.56
32251;BME280;41295;48.518;9.206;2023-03-03T11:31:01;97507.16;;;6.48;59.65
32251;BME280;41295;48.518;9.206;2023-03-03T11:33:09;97510.59;;;6.48;59.89
32251;BME280;41295;48.518;9.206;2023-03-03T11:35:20;97503.41;;;6.65;59.42
32251;BME280;41295;48.518;9.206;2023-03-03T11:37:27;97501.66;;;6.65;59.05
32251;BME280;41295;48.518;9.206;2023-03-03T11:39:37;97490.47;;;6.63;59.35
32251;BME280;41295;48.518;9.206;2023-03-03T11:41:52;97492.22;;;6.63;59.65
32251;BME280;41295;48.518;9.206;2023-03-03T11:44:17;97491.28;;;6.65;59.49
32251;BME280;41295;48.518;9.206;2023-03-03T11:46:25;97489.56;;;6.66;59.62
32251;BME280;41295;48.518;9.206;2023-03-03T11:48:33;97482.66;;;6.66;59.70
32251;BME280;41295;48.518;9.206;2023-03-03T11:50:42;97480.88;;;6.68;59.37
32251;BME280;41295;48.518;9.206;2023-03-03T11:52:51;97480.81;;;6.71;59.32
32251;BME280;41295;48.518;9.206;2023-03-03T11:55:00;97481.66;;;6.72;59.20
32251;BME280;41295;48.518;9.206;2023-03-03T11:57:17;97483.16;;;6.85;58.80
32251;BME280;41295;48.518;9.206;2023-03-03T12:02:21;97471.78;;;6.93;58.57
32251;BME280;41295;48.518;9.206;2023-03-03T12:04:30;97475.16;;;6.96;58.29
32251;BME280;41295;48.518;9.206;2023-03-03T12:06:45;97480.25;;;7.01;58.12
32251;BME280;41295;48.518;9.206;2023-03-03T12:09:10;97473.00;;;7.17;57.94
32251;BME280;41295;48.518;9.206;2023-03-03T12:11:20;97472.94;;;7.20;57.99
32251;BME280;41295;48.518;9.206;2023-03-03T12:13:38;97483.16;;;7.28;57.57
32251;BME280;41295;48.518;9.206;2023-03-03T12:15:48;97472.63;;;7.36;57.60
32251;BME280;41295;48.518;9.206;2023-03-03T12:18:19;97467.88;;;7.57;56.97
32251;BME280;41295;48.518;9.206;2023-03-03T12:20:31;97474.66;;;7.61;56.47
32251;BME280;41295;48.518;9.206;2023-03-03T12:22:37;97472.13;;;7.60;56.33
32251;BME280;41295;48.518;9.206;2023-03-03T12:24:55;97474.66;;;7.63;56.34
32251;BME280;41295;48.518;9.206;2023-03-03T12:27:11;97470.31;;;7.63;56.34
32251;BME280;41295;48.518;9.206;2023-03-03T12:29:25;97465.03;;;7.68;56.43
32251;BME280;41295;48.518;9.206;2023-03-03T12:31:37;97466.53;;;7.78;55.71
32251;BME280;41295;48.518;9.206;2023-03-03T12:33:51;97464.84;;;7.76;55.56
32251;BME280;41295;48.518;9.206;2023-03-03T12:36:03;97468.25;;;7.78;55.67
32251;BME280;41295;48.518;9.206;2023-03-03T12:38:18;97465.56;;;7.81;55.80
32251;BME280;41295;48.518;9.206;2023-03-03T12:40:28;97454.28;;;7.84;55.81
32251;BME280;41295;48.518;9.206;2023-03-03T12:42:46;97455.06;;;7.87;55.64
32251;BME280;41295;48.518;9.206;2023-03-03T12:44:56;97464.38;;;7.96;54.97
32251;BME280;41295;48.518;9.206;2023-03-03T12:47:05;97457.28;;;8.03;55.38
32251;BME280;41295;48.518;9.206;2023-03-03T12:49:11;97463.25;;;8.06;55.12
32251;BME280;41295;48.518;9.206;2023-03-03T12:51:24;97455.38;;;8.10;54.97
32251;BME280;41295;48.518;9.206;2023-03-03T12:53:47;97455.28;;;8.14;55.09
32251;BME280;41295;48.518;9.206;2023-03-03T12:55:56;97458.66;;;8.18;54.57
32251;BME280;41295;48.518;9.206;2023-03-03T12:58:07;97450.81;;;8.20;54.84
32251;BME280;41295;48.518;9.206;2023-03-03T13:00:35;97453.34;;;8.23;54.55
32251;BME280;41295;48.518;9.206;2023-03-03T13:02:49;97446.09;;;8.36;54.30
32251;BME280;41295;48.518;9.206;2023-03-03T13:05:06;97448.38;;;8.48;53.40
32251;BME280;41295;48.518;9.206;2023-03-03T13:07:18;97447.25;;;8.90;52.72
32251;BME280;41295;48.518;9.206;2023-03-03T13:09:34;97448.28;;;9.45;51.71
32251;BME280;41295;48.518;9.206;2023-03-03T13:12:04;97439.44;;;9.80;50.88
32251;BME280;41295;48.518;9.206;2023-03-03T13:14:20;97444.13;;;9.97;50.33
32251;BME280;41295;48.518;9.206;2023-03-03T13:16:30;97441.34;;;10.29;49.98
32251;BME280;41295;48.518;9.206;2023-03-03T13:18:50;97442.53;;;10.71;48.21
32251;BME280;41295;48.518;9.206;2023-03-03T13:20:59;97447.56;;;11.25;47.40
32251;BME280;41295;48.518;9.206;2023-03-03T13:23:09;97431.06;;;11.47;46.51
32251;BME280;41295;48.518;9.206;2023-03-03T13:25:32;97438.59;;;11.33;46.77
32251;BME280;41295;48.518;9.206;2023-03-03T13:27:38;97434.13;;;11.12;47.36
32251;BME280;41295;48.518;9.206;2023-03-03T13:29:57;97434.69;;;10.97;47.49
32251;BME280;41295;48.518;9.206;2023-03-03T13:32:07;97439.59;;;11.04;47.35
32251;BME280;41295;48.518;9.206;2023-03-03T13:34:20;97440.28;;;11.34;47.13
32251;BME280;41295;48.518;9.206;2023-03-03T13:36:30;97430.16;;;11.71;46.33
32251;BME280;41295;48.518;9.206;2023-03-03T13:38:38;97432.50;;;11.99;45.49
32251;BME280;41295;48.518;9.206;2023-03-03T13:40:45;97436.94;;;11.97;45.24
32251;BME280;41295;48.518;9.206;2023-03-03T13:42:54;97438.00;;;11.71;45.80
32251;BME280;41295;48.518;9.206;2023-03-03T13:45:02;97443.16;;;11.50;46.13
32251;BME280;41295;48.518;9.206;2023-03-03T13:47:14;97437.66;;;11.34;46.35
32251;BME280;41295;48.518;9.206;2023-03-03T13:49:28;97433.31;;;11.10;46.91
32251;BME280;41295;48.518;9.206;2023-03-03T13:51:41;97439.38;;;10.87;47.38
32251;BME280;41295;48.518;9.206;2023-03-03T13:53:52;97433.47;;;10.57;47.39
32251;BME280;41295;48.518;9.206;2023-03-03T13:56:04;97433.41;;;10.32;48.31
32251;BME280;41295;48.518;9.206;2023-03-03T13:58:21;97436.69;;;10.11;48.93
32251;BME280;41295;48.518;9.206;2023-03-03T14:00:33;97433.69;;;9.97;49.57
32251;BME280;41295;48.518;9.206;2023-03-03T14:05:29;97427.97;;;9.85;49.72
32251;BME280;41295;48.518;9.206;2023-03-03T14:07:41;97426.19;;;9.88;49.80
32251;BME280;41295;48.518;9.206;2023-03-03T14:09:54;97422.81;;;9.84;49.87
32251;BME280;41295;48.518;9.206;2023-03-03T14:12:04;97419.56;;;9.77;49.45
32251;BME280;41295;48.518;9.206;2023-03-03T14:14:22;97417.19;;;9.69;49.72
32251;BME280;41295;48.518;9.206;2023-03-03T14:16:42;97419.97;;;9.65;49.83
32251;BME280;41295;48.518;9.206;2023-03-03T14:18:53;97413.88;;;9.64;49.57
32251;BME280;41295;48.518;9.206;2023-03-03T14:21:02;97414.81;;;9.61;49.93
32251;BME280;41295;48.518;9.206;2023-03-03T14:23:12;97411.88;;;9.72;50.10
32251;BME280;41295;48.518;9.206;2023-03-03T14:25:16;97414.44;;;9.74;49.92
32251;BME280;41295;48.518;9.206;2023-03-03T14:27:22;97412.41;;;9.84;49.96
32251;BME280;41295;48.518;9.206;2023-03-03T14:29:31;97410.66;;;9.84;50.22
32251;BME280;41295;48.518;9.206;2023-03-03T14:31:38;97413.97;;;9.88;50.17
32251;BME280;41295;48.518;9.206;2023-03-03T14:33:45;97414.56;;;9.98;50.07
32251;BME280;41295;48.518;9.206;2023-03-03T14:36:17;97417.22;;;9.96;49.32
32251;BME280;41295;48.518;9.206;2023-03-03T14:38:36;97412.84;;;9.97;49.68
32251;BME280;41295;48.518;9.206;2023-03-03T14:40:41;97412.94;;;9.94;49.54
32251;BME280;41295;48.518;9.206;2023-03-03T14:42:47;97413.97;;;9.88;49.81
32251;BME280;41295;48.518;9.206;2023-03-03T14:44:53;97410.72;;;9.81;49.43